Terminal Aerodrome Forecast
Issued by NWS Charleston, SC

Home | Current Version | Previous Version | Text Only | Print | Product List | Glossary On
Versions: 1 2 3 4 5 6 7 8 9 10 11 12 13 14
000
FTUS42 KCHS 301100
TAFSAV
TAF
KSAV 301138Z 3012/3112 VRB03KT P6SM SCT015
     FM301500 12009KT P6SM SCT035
     FM310100 VRB03KT P6SM SCT015=

USA.gov is the U.S. government's official web portal to all federal, state and local government web resources and services.